createdAt,value
2023-02-19T00:00:30.748Z,73.39
2023-02-19T00:03:02.628Z,74.81
2023-02-19T00:05:33.873Z,73.94
2023-02-19T00:08:03.742Z,75.17
2023-02-19T00:10:38.271Z,74.24
2023-02-19T00:13:09.428Z,74.74
2023-02-19T00:15:39.743Z,72.43
2023-02-19T00:18:09.816Z,73.72
2023-02-19T00:20:39.752Z,73.26
2023-02-19T00:23:10.004Z,77.31
2023-02-19T00:25:41.536Z,75.74
2023-02-19T00:28:11.601Z,75.82
2023-02-19T00:30:41.556Z,73.71
2023-02-19T00:33:11.718Z,74.47
2023-02-19T00:35:41.422Z,75.38
2023-02-19T00:38:12.054Z,74.64
2023-02-19T00:40:44.409Z,72.43
2023-02-19T00:43:14.946Z,73.22
2023-02-19T00:45:45.725Z,76.12
2023-02-19T00:48:16.151Z,74.32
2023-02-19T00:50:46.501Z,76.54
2023-02-19T00:53:16.408Z,75.43
2023-02-19T00:55:48.835Z,75.82
2023-02-19T00:58:18.710Z,75.72
2023-02-19T01:00:49.836Z,75.69
2023-02-19T01:03:19.829Z,74.49
2023-02-19T01:05:50.700Z,74.10
2023-02-19T01:08:20.198Z,73.47
2023-02-19T01:10:52.343Z,75.14
2023-02-19T01:13:23.841Z,73.27
2023-02-19T01:15:56.229Z,76.77
2023-02-19T01:18:26.515Z,75.61
2023-02-19T01:20:56.909Z,76.80
2023-02-19T01:23:27.464Z,76.93
2023-02-19T01:26:00.201Z,74.63
2023-02-19T01:28:31.119Z,75.98
2023-02-19T01:31:04.897Z,75.29
2023-02-19T01:33:36.978Z,72.91
2023-02-19T01:36:09.423Z,76.07
2023-02-19T01:38:41.123Z,74.51
2023-02-19T01:41:16.520Z,71.70
2023-02-19T01:44:03.348Z,74.69
2023-02-19T01:46:35.639Z,74.46
2023-02-19T01:49:10.116Z,75.11
2023-02-19T01:51:43.896Z,76.21
2023-02-19T01:54:17.327Z,73.99
2023-02-19T01:56:53.487Z,75.46
2023-02-19T01:59:24.642Z,71.84
2023-02-19T02:01:55.790Z,75.50
2023-02-19T02:04:26.383Z,76.06
2023-02-19T02:06:58.956Z,73.52
2023-02-19T02:09:49.604Z,74.98
2023-02-19T02:12:22.154Z,76.53
2023-02-19T02:14:52.892Z,74.61
2023-02-19T02:17:28.485Z,72.58
2023-02-19T02:20:39.286Z,73.07
2023-02-19T02:23:19.397Z,73.77
2023-02-19T02:26:11.849Z,72.48
2023-02-19T02:29:19.804Z,72.72
2023-02-19T02:31:59.081Z,73.91
2023-02-19T02:34:35.800Z,76.04
2023-02-19T02:37:11.487Z,76.18
2023-02-19T02:39:45.891Z,74.50
2023-02-19T02:42:30.593Z,75.31
2023-02-19T02:45:34.439Z,73.31
2023-02-19T02:48:35.897Z,77.31
2023-02-19T02:51:15.659Z,74.81
2023-02-19T02:54:08.593Z,74.02
2023-02-19T02:56:40.497Z,77.50
2023-02-19T02:59:13.054Z,76.46
2023-02-19T03:02:12.116Z,77.58
2023-02-19T03:05:06.845Z,78.53
2023-02-19T03:07:40.637Z,80.78
2023-02-19T03:10:14.841Z,79.30
2023-02-19T03:13:04.396Z,77.54
2023-02-19T03:15:56.259Z,76.34
2023-02-19T03:18:45.297Z,76.21
2023-02-19T03:21:20.886Z,78.30
2023-02-19T03:24:09.383Z,76.47
2023-02-19T03:26:43.015Z,76.54
2023-02-19T03:29:26.409Z,74.10
2023-02-19T03:31:59.734Z,76.04
2023-02-19T03:34:34.528Z,78.01
2023-02-19T03:37:12.690Z,73.79
2023-02-19T03:39:46.173Z,77.36
2023-02-19T03:42:23.462Z,77.49
2023-02-19T03:45:08.129Z,75.38
2023-02-19T03:47:44.263Z,77.77
2023-02-19T03:50:18.988Z,75.31
2023-02-19T03:52:59.020Z,76.37
2023-02-19T03:55:34.881Z,76.87
2023-02-19T03:58:10.705Z,76.98
2023-02-19T04:00:44.944Z,74.08
2023-02-19T04:03:20.942Z,76.56
2023-02-19T04:05:55.733Z,74.46
2023-02-19T04:08:29.437Z,73.26
2023-02-19T04:11:01.929Z,75.85
2023-02-19T04:13:37.583Z,76.50
2023-02-19T04:16:23.665Z,73.65
2023-02-19T04:18:57.969Z,74.42
2023-02-19T04:21:33.333Z,75.35
2023-02-19T04:24:08.475Z,74.13
2023-02-19T04:26:43.889Z,75.42
2023-02-19T04:29:16.122Z,77.32
2023-02-19T04:31:47.185Z,77.19
2023-02-19T04:34:22.826Z,74.67
2023-02-19T04:36:54.942Z,73.94
2023-02-19T04:39:27.858Z,75.90
2023-02-19T04:41:58.306Z,72.92
2023-02-19T04:44:29.326Z,78.03
2023-02-19T04:47:00.256Z,76.17
2023-02-19T04:49:31.422Z,74.68
2023-02-19T04:52:01.591Z,76.55
2023-02-19T04:54:33.948Z,75.72
2023-02-19T04:57:03.889Z,75.42
2023-02-19T04:59:34.119Z,78.51
2023-02-19T05:02:04.258Z,77.62
2023-02-19T05:04:34.753Z,74.53
2023-02-19T05:07:04.964Z,77.16
2023-02-19T05:09:37.114Z,77.26
2023-02-19T05:12:07.396Z,76.41
2023-02-19T05:14:38.450Z,77.01
2023-02-19T05:17:08.571Z,77.16
2023-02-19T05:19:38.846Z,73.89
2023-02-19T05:22:09.232Z,77.15
2023-02-19T05:24:43.246Z,75.46
2023-02-19T05:27:14.120Z,78.76
2023-02-19T05:29:44.261Z,81.63
2023-02-19T05:32:14.732Z,77.51
2023-02-19T05:34:44.999Z,75.75
2023-02-19T05:37:15.052Z,77.67
2023-02-19T05:39:46.544Z,79.08
2023-02-19T05:42:18.329Z,79.07
2023-02-19T05:44:48.735Z,78.02
2023-02-19T05:47:18.527Z,78.73
2023-02-19T05:49:49.288Z,79.07
2023-02-19T05:52:19.728Z,76.66
2023-02-19T05:54:50.838Z,79.20
2023-02-19T05:57:21.914Z,79.70
2023-02-19T05:59:52.160Z,80.15
2023-02-19T06:02:22.668Z,77.67
2023-02-19T06:04:52.881Z,77.71
2023-02-19T06:07:23.268Z,78.87
2023-02-19T06:09:55.285Z,76.77
2023-02-19T06:12:25.490Z,75.28
2023-02-19T06:14:55.962Z,76.24
2023-02-19T06:17:26.575Z,77.94
2023-02-19T06:19:56.866Z,75.57
2023-02-19T06:22:27.941Z,76.54
2023-02-19T06:25:00.271Z,78.29
2023-02-19T06:27:30.751Z,76.00
2023-02-19T06:30:01.261Z,74.36
2023-02-19T06:32:32.255Z,76.34
2023-02-19T06:35:03.213Z,77.08
2023-02-19T06:37:34.240Z,76.53
2023-02-19T06:40:06.073Z,78.00
2023-02-19T06:42:36.490Z,77.20
2023-02-19T06:45:07.556Z,77.54
2023-02-19T06:47:38.146Z,76.30
2023-02-19T06:50:09.192Z,74.80
2023-02-19T06:52:39.924Z,75.94
2023-02-19T06:55:12.979Z,78.15
2023-02-19T06:57:44.113Z,77.76
2023-02-19T07:00:15.967Z,74.10
2023-02-19T07:02:48.865Z,75.31
2023-02-19T07:05:19.280Z,77.21
2023-02-19T07:07:51.100Z,76.42
2023-02-19T07:10:22.817Z,73.93
2023-02-19T07:12:52.807Z,76.01
2023-02-19T07:15:23.568Z,75.41
2023-02-19T07:17:53.786Z,75.53
2023-02-19T07:20:24.829Z,76.80
2023-02-19T07:22:55.740Z,75.66
2023-02-19T07:25:27.629Z,75.02
2023-02-19T07:27:58.245Z,75.63
2023-02-19T07:30:28.567Z,78.44
2023-02-19T07:32:58.640Z,76.59
2023-02-19T07:35:28.817Z,77.54
2023-02-19T07:37:59.274Z,79.33
2023-02-19T07:40:31.973Z,76.63
2023-02-19T07:43:03.074Z,79.16
2023-02-19T07:45:33.539Z,78.06
2023-02-19T07:48:04.215Z,76.53
2023-02-19T07:50:34.191Z,77.75
2023-02-19T07:53:04.749Z,78.17
2023-02-19T07:55:37.752Z,77.88
2023-02-19T07:58:08.210Z,76.58
2023-02-19T08:00:38.931Z,78.94
2023-02-19T08:03:08.398Z,79.56
2023-02-19T08:05:41.097Z,80.26
2023-02-19T08:08:12.614Z,78.20
2023-02-19T08:11:01.983Z,80.17
2023-02-19T08:13:34.429Z,78.75
2023-02-19T08:16:24.151Z,78.17
2023-02-19T08:19:00.473Z,78.95
2023-02-19T08:21:31.302Z,78.45
2023-02-19T08:24:02.136Z,77.76
2023-02-19T08:26:34.698Z,75.02
2023-02-19T08:29:04.764Z,75.38
2023-02-19T08:31:35.918Z,77.27
2023-02-19T08:34:06.348Z,76.32
2023-02-19T08:36:36.657Z,75.45
2023-02-19T08:39:06.940Z,74.59
2023-02-19T08:41:38.699Z,73.70
2023-02-19T08:44:09.424Z,78.42
2023-02-19T08:46:39.422Z,76.16
2023-02-19T08:49:28.164Z,75.28
2023-02-19T08:51:57.977Z,75.95
2023-02-19T08:54:27.723Z,75.79
2023-02-19T08:57:02.268Z,75.09
2023-02-19T08:59:32.750Z,75.69
2023-02-19T09:02:02.817Z,74.74
2023-02-19T09:04:33.206Z,73.36
2023-02-19T09:07:03.179Z,74.78
2023-02-19T09:09:33.878Z,74.22
2023-02-19T09:12:07.163Z,74.88
2023-02-19T09:14:37.929Z,74.71
2023-02-19T09:17:08.752Z,74.51
2023-02-19T09:19:39.285Z,75.10
2023-02-19T09:22:09.596Z,74.17
2023-02-19T09:24:40.114Z,73.77
2023-02-19T09:27:12.374Z,72.08
2023-02-19T09:29:42.503Z,73.56
2023-02-19T09:32:12.929Z,73.19
2023-02-19T09:34:43.589Z,73.48
2023-02-19T09:37:14.146Z,73.22
2023-02-19T09:39:44.511Z,72.48
2023-02-19T09:42:21.244Z,71.04
2023-02-19T09:44:53.115Z,71.74
2023-02-19T09:47:25.635Z,71.76
2023-02-19T09:49:57.710Z,69.73
2023-02-19T09:52:33.089Z,70.17
2023-02-19T09:55:07.657Z,70.06
2023-02-19T09:57:39.265Z,69.53
2023-02-19T10:00:21.662Z,69.88
2023-02-19T10:02:55.197Z,71.44
2023-02-19T10:05:27.035Z,76.33
2023-02-19T10:07:58.282Z,74.48
2023-02-19T10:10:32.354Z,71.74
2023-02-19T10:13:16.767Z,80.84
2023-02-19T10:15:49.435Z,64.92
2023-02-19T10:18:21.329Z,75.80
2023-02-19T10:20:53.089Z,60.93
2023-02-19T10:23:23.634Z,62.01
2023-02-19T10:25:57.336Z,60.68
2023-02-19T10:28:31.734Z,60.52
2023-02-19T10:31:03.898Z,56.95
2023-02-19T10:33:34.445Z,58.06
2023-02-19T10:36:06.566Z,60.49
2023-02-19T10:38:38.553Z,60.73
2023-02-19T10:41:10.024Z,58.65
2023-02-19T10:43:45.219Z,60.08
2023-02-19T10:46:19.335Z,56.90
2023-02-19T10:48:53.526Z,58.66
2023-02-19T10:51:25.583Z,79.17
2023-02-19T10:54:07.237Z,62.44
2023-02-19T10:56:38.949Z,50.18
2023-02-19T10:59:27.740Z,59.49
2023-02-19T11:01:58.990Z,58.65
2023-02-19T11:04:34.299Z,59.51
2023-02-19T11:07:10.832Z,54.49
2023-02-19T11:09:43.024Z,57.68
2023-02-19T11:12:13.160Z,52.50
2023-02-19T11:14:46.112Z,52.97
2023-02-19T11:17:26.380Z,49.81
2023-02-19T11:19:57.724Z,49.53
2023-02-19T11:22:33.811Z,46.34
2023-02-19T11:25:07.997Z,43.99
2023-02-19T11:27:38.365Z,46.40
2023-02-19T11:30:41.408Z,46.35
2023-02-19T11:33:35.616Z,47.36
2023-02-19T11:36:33.862Z,46.62
2023-02-19T11:39:24.677Z,46.70
2023-02-19T11:42:07.648Z,43.61
2023-02-19T11:44:49.830Z,43.22
2023-02-19T11:47:54.138Z,41.92
2023-02-19T11:50:30.059Z,41.38
2023-02-19T11:53:12.548Z,38.84
2023-02-19T11:55:55.057Z,34.81
2023-02-19T11:58:53.368Z,42.54
2023-02-19T12:01:29.973Z,31.54
2023-02-19T12:04:32.379Z,31.67
2023-02-19T12:07:09.521Z,29.74
2023-02-19T12:09:52.333Z,29.41
2023-02-19T12:12:33.418Z,30.42
2023-02-19T12:15:15.874Z,28.91
2023-02-19T12:18:17.656Z,28.35
2023-02-19T12:20:55.413Z,28.45
2023-02-19T12:23:55.072Z,27.32
2023-02-19T12:26:30.193Z,28.02
2023-02-19T12:29:12.895Z,25.99
2023-02-19T12:32:15.935Z,31.21
2023-02-19T12:35:16.540Z,28.02
2023-02-19T12:37:52.231Z,28.12
2023-02-19T12:40:37.811Z,31.39
2023-02-19T12:43:25.092Z,25.06
2023-02-19T12:45:58.906Z,26.26
2023-02-19T12:48:31.917Z,25.50
2023-02-19T12:51:07.564Z,26.52
2023-02-19T12:53:42.498Z,40.85
2023-02-19T12:56:17.459Z,46.79
2023-02-19T12:58:52.965Z,32.57
2023-02-19T13:01:27.638Z,37.34
2023-02-19T13:04:18.217Z,31.26
2023-02-19T13:06:53.625Z,29.71
2023-02-19T13:09:28.749Z,30.02
2023-02-19T13:12:03.768Z,31.11
2023-02-19T13:14:38.133Z,30.13
2023-02-19T13:17:13.444Z,30.40
2023-02-19T13:19:44.769Z,32.16
2023-02-19T13:22:42.002Z,33.03
2023-02-19T13:25:14.617Z,31.23
2023-02-19T13:28:07.474Z,30.29
2023-02-19T13:31:03.705Z,30.84
2023-02-19T13:33:46.605Z,32.10
2023-02-19T13:36:22.876Z,30.85
2023-02-19T13:38:54.072Z,31.95
2023-02-19T13:41:33.228Z,30.95
2023-02-19T13:44:06.762Z,31.21
2023-02-19T13:46:42.630Z,30.90
2023-02-19T13:49:45.228Z,32.37
2023-02-19T13:52:48.201Z,34.75
2023-02-19T13:55:57.065Z,33.30
2023-02-19T13:59:06.290Z,34.37
2023-02-19T14:02:27.162Z,32.43
2023-02-19T14:05:00.445Z,36.25
2023-02-19T14:07:57.105Z,33.61
2023-02-19T14:11:04.125Z,34.01
2023-02-19T14:14:27.235Z,34.49
2023-02-19T14:17:31.335Z,35.56
2023-02-19T14:20:04.916Z,34.81
2023-02-19T14:23:11.663Z,35.71
2023-02-19T14:25:56.904Z,35.09
2023-02-19T14:28:45.708Z,35.33
2023-02-19T14:31:26.539Z,35.40
2023-02-19T14:34:03.785Z,36.55
2023-02-19T14:36:44.767Z,35.81
2023-02-19T14:39:19.103Z,37.29
2023-02-19T14:41:54.229Z,36.96
2023-02-19T14:44:28.392Z,37.02
2023-02-19T14:47:07.209Z,37.60
2023-02-19T14:49:46.193Z,36.76
2023-02-19T14:52:25.315Z,37.53
2023-02-19T14:54:59.095Z,38.38
2023-02-19T14:57:34.386Z,38.11
2023-02-19T15:00:24.406Z,37.71
2023-02-19T15:02:58.013Z,38.11
2023-02-19T15:05:35.328Z,39.18
2023-02-19T15:08:10.750Z,38.47
2023-02-19T15:10:44.403Z,40.07
2023-02-19T15:13:23.986Z,38.99
2023-02-19T15:15:55.872Z,39.03
2023-02-19T15:18:30.308Z,38.44
2023-02-19T15:21:08.502Z,38.94
2023-02-19T15:23:39.311Z,40.18
2023-02-19T15:26:22.491Z,39.98
2023-02-19T15:29:01.740Z,39.27
2023-02-19T15:31:32.859Z,40.45
2023-02-19T15:34:04.129Z,39.55
2023-02-19T15:36:37.421Z,40.54
2023-02-19T15:39:07.846Z,38.32
2023-02-19T15:41:38.336Z,38.50
2023-02-19T15:44:31.479Z,38.59
2023-02-19T15:47:11.016Z,39.20
2023-02-19T15:49:51.982Z,41.99
2023-02-19T15:52:36.294Z,40.28
2023-02-19T15:55:27.962Z,40.84
2023-02-19T15:58:08.835Z,39.25
2023-02-19T16:00:44.141Z,40.65
2023-02-19T16:03:21.516Z,39.94
2023-02-19T16:06:03.089Z,38.67
2023-02-19T16:08:37.920Z,40.24
2023-02-19T16:11:28.222Z,41.03
2023-02-19T16:14:24.211Z,43.72
2023-02-19T16:16:58.334Z,40.52
2023-02-19T16:19:31.140Z,40.08
2023-02-19T16:22:03.027Z,40.51
2023-02-19T16:24:42.456Z,40.68
2023-02-19T16:27:13.944Z,40.01
2023-02-19T16:29:43.878Z,40.97
2023-02-19T16:32:19.053Z,39.81
2023-02-19T16:34:52.396Z,39.98
2023-02-19T16:37:38.203Z,42.07
2023-02-19T16:41:04.879Z,43.22
2023-02-19T16:43:44.792Z,41.88
2023-02-19T16:46:16.112Z,43.83
2023-02-19T16:49:22.813Z,40.51
2023-02-19T16:51:55.629Z,39.78
2023-02-19T16:54:27.401Z,40.65
2023-02-19T16:56:57.626Z,40.55
2023-02-19T16:59:30.966Z,41.38
2023-02-19T17:02:01.071Z,41.44
2023-02-19T17:04:32.436Z,40.93
2023-02-19T17:07:04.045Z,41.40
2023-02-19T17:09:34.503Z,40.46
2023-02-19T17:12:08.086Z,40.64
2023-02-19T17:14:40.181Z,41.13
2023-02-19T17:17:10.380Z,40.75
2023-02-19T17:19:43.120Z,41.75
2023-02-19T17:22:17.593Z,41.92
2023-02-19T17:24:48.987Z,42.41
2023-02-19T17:27:18.760Z,42.52
2023-02-19T17:29:50.106Z,42.59
2023-02-19T17:32:20.579Z,42.81
2023-02-19T17:34:52.314Z,42.57
2023-02-19T17:37:22.357Z,45.59
2023-02-19T17:39:53.190Z,41.39
2023-02-19T17:42:24.100Z,48.59
2023-02-19T17:44:56.557Z,40.76
2023-02-19T17:47:27.049Z,43.57
2023-02-19T17:49:57.980Z,42.18
2023-02-19T17:52:29.770Z,39.99
2023-02-19T17:55:01.470Z,42.44
2023-02-19T17:57:34.112Z,41.80
2023-02-19T18:00:09.108Z,40.55
2023-02-19T18:02:39.776Z,38.43
2023-02-19T18:05:12.771Z,40.11
2023-02-19T18:07:43.649Z,39.59
2023-02-19T18:10:15.652Z,37.77
2023-02-19T18:12:46.899Z,38.58
2023-02-19T18:15:24.170Z,36.58
2023-02-19T18:17:55.617Z,38.88
2023-02-19T18:20:28.551Z,38.74
2023-02-19T18:23:01.334Z,39.16
2023-02-19T18:25:32.622Z,38.24
2023-02-19T18:28:02.692Z,41.02
2023-02-19T18:30:36.097Z,38.24
2023-02-19T18:33:06.864Z,38.37
2023-02-19T18:35:36.856Z,42.01
2023-02-19T18:38:08.330Z,38.82
2023-02-19T18:40:38.767Z,39.39
2023-02-19T18:43:25.244Z,39.86
2023-02-19T18:46:02.037Z,39.92
2023-02-19T18:48:33.788Z,39.89
2023-02-19T18:51:04.906Z,40.62
2023-02-19T18:53:36.547Z,39.89
2023-02-19T18:56:09.597Z,40.40
2023-02-19T18:58:39.885Z,40.78
2023-02-19T19:01:14.822Z,41.19
2023-02-19T19:03:45.418Z,40.84
2023-02-19T19:06:15.735Z,40.43
2023-02-19T19:08:46.129Z,42.14
2023-02-19T19:11:20.246Z,41.00
2023-02-19T19:13:51.967Z,40.11
2023-02-19T19:16:28.072Z,40.55
2023-02-19T19:18:58.839Z,41.39
2023-02-19T19:21:31.218Z,41.28
2023-02-19T19:24:02.565Z,40.42
2023-02-19T19:26:33.256Z,44.51
2023-02-19T19:29:05.059Z,45.09
2023-02-19T19:31:38.730Z,45.62
2023-02-19T19:34:10.255Z,42.67
2023-02-19T19:36:39.870Z,42.74
2023-02-19T19:39:11.599Z,45.32
2023-02-19T19:41:45.038Z,44.80
2023-02-19T19:44:15.693Z,44.69
2023-02-19T19:46:47.715Z,46.56
2023-02-19T19:49:22.656Z,46.10
2023-02-19T19:51:58.652Z,45.05
2023-02-19T19:54:32.398Z,46.36
2023-02-19T19:57:02.778Z,45.19
2023-02-19T19:59:33.296Z,43.76
2023-02-19T20:02:06.206Z,47.73
2023-02-19T20:04:36.267Z,45.90
2023-02-19T20:07:07.792Z,44.53
2023-02-19T20:09:37.889Z,47.54
2023-02-19T20:12:11.210Z,45.00
2023-02-19T20:14:41.637Z,41.13
2023-02-19T20:17:15.288Z,44.90
2023-02-19T20:19:48.051Z,45.18
2023-02-19T20:22:19.226Z,45.05
2023-02-19T20:24:54.272Z,48.62
2023-02-19T20:27:28.064Z,49.98
2023-02-19T20:29:58.593Z,45.93
2023-02-19T20:32:30.658Z,46.32
2023-02-19T20:35:00.728Z,47.45
2023-02-19T20:37:32.116Z,46.01
2023-02-19T20:40:01.729Z,45.09
2023-02-19T20:42:32.105Z,49.74
2023-02-19T20:45:02.231Z,48.68
2023-02-19T20:47:34.728Z,47.98
2023-02-19T20:50:04.660Z,49.31
2023-02-19T20:52:34.817Z,50.12
2023-02-19T20:55:05.190Z,49.03
2023-02-19T20:57:35.455Z,49.80
2023-02-19T21:00:08.875Z,47.71
2023-02-19T21:02:43.508Z,54.03
2023-02-19T21:05:14.830Z,50.91
2023-02-19T21:07:45.278Z,51.09
2023-02-19T21:10:16.522Z,49.04
2023-02-19T21:12:48.358Z,51.32
2023-02-19T21:15:20.660Z,50.36
2023-02-19T21:17:58.362Z,45.48
2023-02-19T21:20:29.111Z,47.84
2023-02-19T21:23:01.118Z,52.07
2023-02-19T21:25:31.894Z,47.83
2023-02-19T21:28:02.587Z,45.70
2023-02-19T21:30:40.622Z,47.16
2023-02-19T21:33:13.535Z,45.57
2023-02-19T21:35:44.033Z,52.04
2023-02-19T21:38:14.596Z,48.06
2023-02-19T21:40:45.055Z,47.36
2023-02-19T21:43:16.732Z,51.44
2023-02-19T21:45:47.332Z,50.98
2023-02-19T21:48:19.339Z,49.09
2023-02-19T21:50:49.843Z,52.81
2023-02-19T21:53:19.800Z,49.40
2023-02-19T21:55:58.421Z,52.55
2023-02-19T21:58:28.838Z,50.74
2023-02-19T22:01:01.120Z,51.26
2023-02-19T22:03:32.545Z,50.71
2023-02-19T22:06:05.026Z,46.66
2023-02-19T22:08:36.483Z,52.49
2023-02-19T22:11:06.892Z,49.38
2023-02-19T22:13:37.501Z,52.73
2023-02-19T22:16:09.714Z,51.28
2023-02-19T22:18:48.911Z,50.36
2023-02-19T22:21:19.389Z,50.77
2023-02-19T22:23:51.123Z,53.22
2023-02-19T22:26:24.216Z,51.99
2023-02-19T22:28:54.945Z,51.22
2023-02-19T22:31:26.171Z,49.50
2023-02-19T22:33:59.334Z,52.73
2023-02-19T22:36:31.214Z,55.01
2023-02-19T22:39:01.746Z,53.79
2023-02-19T22:41:32.384Z,53.72
2023-02-19T22:44:04.119Z,53.70
2023-02-19T22:46:34.774Z,54.65
2023-02-19T22:49:07.888Z,53.73
2023-02-19T22:51:37.980Z,55.50
2023-02-19T22:54:09.055Z,54.28
2023-02-19T22:56:39.531Z,53.20
2023-02-19T22:59:09.989Z,51.21
2023-02-19T23:01:41.086Z,53.96
2023-02-19T23:04:14.036Z,55.49
2023-02-19T23:06:45.838Z,52.17
2023-02-19T23:09:21.252Z,52.78
2023-02-19T23:11:52.189Z,55.12
2023-02-19T23:14:24.785Z,54.73
2023-02-19T23:16:55.220Z,55.04
2023-02-19T23:19:28.132Z,53.32
2023-02-19T23:21:58.236Z,55.38
2023-02-19T23:24:28.913Z,53.10
2023-02-19T23:26:59.878Z,57.30
2023-02-19T23:29:32.219Z,52.46
2023-02-19T23:32:01.856Z,59.22
2023-02-19T23:34:34.052Z,55.01
2023-02-19T23:37:05.076Z,57.02
2023-02-19T23:39:36.183Z,53.51
2023-02-19T23:42:06.523Z,52.40
2023-02-19T23:44:37.400Z,57.83
2023-02-19T23:47:08.211Z,58.03
2023-02-19T23:49:39.824Z,59.00
2023-02-19T23:52:10.519Z,56.01
2023-02-19T23:54:41.194Z,57.25
2023-02-19T23:57:11.434Z,56.64
2023-02-19T23:59:41.869Z,57.94
